Time;durP1;ratioP1;P1;durP2;ratioP2;P2;SDS_P1;SDS_P2;PMS_P1;PMS_P2;Temp;Humidity;BMP_temperature;BMP_pressure;BME280_temperature;BME280_humidity;BME280_pressure;Samples;Min_cycle;Max_cycle;Signal;HPM_P1;HPM_P2
2023/07/24 00:00:40;;;;;;;;;;;;;;;16.99;100.00;100456.28;5024108;28;19931;-81
2023/07/24 00:03:05;;;;;;;;;;;;;;;17.04;100.00;100453.06;5017802;28;20844;-79
2023/07/24 00:05:30;;;;;;;;;;;;;;;17.03;100.00;100445.94;5037372;28;20341;-81
2023/07/24 00:07:55;;;;;;;;;;;;;;;17.02;100.00;100442.41;5022210;28;19932;-77
2023/07/24 00:10:21;;;;;;;;;;;;;;;17.06;100.00;100443.75;5038433;28;19964;-80
2023/07/24 00:12:46;;;;;;;;;;;;;;;17.06;100.00;100442.88;5038684;28;20742;-79
2023/07/24 00:15:11;;;;;;;;;;;;;;;17.09;100.00;100442.56;5035994;28;20014;-79
2023/07/24 00:17:36;;;;;;;;;;;;;;;17.09;100.00;100442.56;5024765;28;20118;-78
2023/07/24 00:20:02;;;;;;;;;;;;;;;17.13;100.00;100448.47;5021580;28;20076;-77
2023/07/24 00:22:27;;;;;;;;;;;;;;;17.12;100.00;100435.91;5022972;28;21012;-78
2023/07/24 00:24:52;;;;;;;;;;;;;;;17.17;100.00;100436.25;5015991;28;19921;-83
2023/07/24 00:27:17;;;;;;;;;;;;;;;17.18;100.00;100435.25;5018203;28;19976;-80
2023/07/24 00:29:42;;;;;;;;;;;;;;;17.22;100.00;100428.44;5023651;28;19963;-76
2023/07/24 00:32:08;;;;;;;;;;;;;;;17.24;100.00;100427.25;5021796;28;20341;-77
2023/07/24 00:34:33;;;;;;;;;;;;;;;17.26;100.00;100435.22;5014131;28;19925;-81
2023/07/24 00:36:58;;;;;;;;;;;;;;;17.28;100.00;100429.63;5036428;28;20370;-79
2023/07/24 00:39:23;;;;;;;;;;;;;;;17.24;100.00;100421.00;5038426;28;20354;-79
2023/07/24 00:41:49;;;;;;;;;;;;;;;17.23;100.00;100403.84;5038251;28;20003;-76
2023/07/24 00:44:14;;;;;;;;;;;;;;;17.17;100.00;100414.56;5031675;28;20362;-79
2023/07/24 00:46:39;;;;;;;;;;;;;;;17.13;100.00;100407.78;5021366;28;20378;-78
2023/07/24 00:49:05;;;;;;;;;;;;;;;17.09;100.00;100410.84;5000150;28;20336;-80
2023/07/24 00:51:30;;;;;;;;;;;;;;;17.16;100.00;100413.72;5014694;28;20428;-77
2023/07/24 00:54:00;;;;;;;;;;;;;;;17.14;100.00;100407.63;5036854;28;19931;-79
2023/07/24 00:56:25;;;;;;;;;;;;;;;17.14;100.00;100406.75;4996754;28;20430;-78
2023/07/24 00:58:50;;;;;;;;;;;;;;;17.19;100.00;100396.25;5016206;28;19925;-78
2023/07/24 01:01:16;;;;;;;;;;;;;;;17.17;100.00;100401.84;5024808;28;19923;-77
2023/07/24 01:03:43;;;;;;;;;;;;;;;17.20;100.00;100404.22;5027983;28;20382;-81
2023/07/24 01:06:08;;;;;;;;;;;;;;;17.18;100.00;100398.13;5018303;28;19935;-80
2023/07/24 01:08:33;;;;;;;;;;;;;;;17.14;100.00;100393.19;5013363;28;19917;-78
2023/07/24 01:11:02;;;;;;;;;;;;;;;17.15;100.00;100387.63;5018753;28;19921;-81
2023/07/24 01:13:28;;;;;;;;;;;;;;;17.13;100.00;100384.22;5031236;28;19925;-79
2023/07/24 01:16:00;;;;;;;;;;;;;;;17.11;100.00;100378.13;5022093;28;20323;-80
2023/07/24 01:18:26;;;;;;;;;;;;;;;17.06;100.00;100386.78;5013740;28;19999;-79
2023/07/24 01:20:51;;;;;;;;;;;;;;;17.04;100.00;100382.56;5017900;28;19952;-80
2023/07/24 01:23:43;;;;;;;;;;;;;;;17.05;100.00;100366.13;5010117;28;19943;-78
2023/07/24 01:26:08;;;;;;;;;;;;;;;17.04;100.00;100367.13;4989936;28;19921;-78
2023/07/24 01:28:33;;;;;;;;;;;;;;;17.05;100.00;100368.84;5003705;28;20415;-78
2023/07/24 01:30:58;;;;;;;;;;;;;;;17.01;100.00;100363.91;5026317;28;20326;-80
2023/07/24 01:33:23;;;;;;;;;;;;;;;16.99;100.00;100364.09;5031950;28;20333;-79
2023/07/24 01:35:50;;;;;;;;;;;;;;;16.97;100.00;100360.72;5035861;28;20275;-78
2023/07/24 01:38:16;;;;;;;;;;;;;;;16.98;100.00;100356.97;5037079;28;20308;-77
2023/07/24 01:40:41;;;;;;;;;;;;;;;16.90;100.00;100344.25;5032490;28;19970;-80
2023/07/24 01:43:06;;;;;;;;;;;;;;;16.86;100.00;100353.75;5010316;28;20027;-81
2023/07/24 01:45:31;;;;;;;;;;;;;;;16.89;100.00;100339.84;5000783;28;19929;-77
2023/07/24 01:47:57;;;;;;;;;;;;;;;16.86;100.00;100340.19;5028604;28;19994;-78
2023/07/24 01:50:22;;;;;;;;;;;;;;;16.88;100.00;100335.44;5012931;28;20004;-77
2023/07/24 01:52:47;;;;;;;;;;;;;;;16.88;100.00;100340.00;5021413;28;20031;-77
2023/07/24 01:55:13;;;;;;;;;;;;;;;16.89;100.00;100336.28;5014626;28;19928;-79
2023/07/24 01:57:38;;;;;;;;;;;;;;;16.86;100.00;100336.63;5005831;28;19924;-81
2023/07/24 02:00:03;;;;;;;;;;;;;;;16.84;100.00;100328.69;5004287;28;19928;-80
2023/07/24 02:02:28;;;;;;;;;;;;;;;16.82;100.00;100330.72;5007995;28;19921;-77
2023/07/24 02:04:54;;;;;;;;;;;;;;;16.81;100.00;100323.59;5017000;28;20322;-81
2023/07/24 02:07:19;;;;;;;;;;;;;;;16.90;100.00;100319.00;5018847;28;20184;-78
2023/07/24 02:09:44;;;;;;;;;;;;;;;16.88;100.00;100323.75;5021493;28;19921;-77
2023/07/24 02:12:09;;;;;;;;;;;;;;;16.84;100.00;100320.53;5014328;28;19921;-81
2023/07/24 02:14:38;;;;;;;;;;;;;;;16.85;100.00;100313.25;5019459;28;20031;-77
2023/07/24 02:17:03;;;;;;;;;;;;;;;16.86;100.00;100314.94;5020912;28;19948;-75
2023/07/24 02:19:28;;;;;;;;;;;;;;;16.79;100.00;100315.66;5032770;28;19920;-79
2023/07/24 02:21:54;;;;;;;;;;;;;;;16.81;100.00;100310.03;5000199;28;19921;-78
2023/07/24 02:24:19;;;;;;;;;;;;;;;16.79;100.00;100301.25;5019661;28;19921;-80
2023/07/24 02:26:44;;;;;;;;;;;;;;;16.79;100.00;100301.25;5015985;28;19955;-74
2023/07/24 02:29:09;;;;;;;;;;;;;;;16.79;100.00;100293.09;5001693;28;20292;-80
2023/07/24 02:31:34;;;;;;;;;;;;;;;16.73;100.00;100294.66;4988435;28;20035;-82
2023/07/24 02:34:00;;;;;;;;;;;;;;;16.74;100.00;100293.63;5004656;28;19925;-82
2023/07/24 02:36:25;;;;;;;;;;;;;;;16.75;100.00;100284.50;5037246;28;19917;-78
2023/07/24 02:38:50;;;;;;;;;;;;;;;16.75;100.00;100291.75;5023818;28;19920;-80
2023/07/24 02:41:15;;;;;;;;;;;;;;;16.74;100.00;100285.50;5021902;28;20067;-79
2023/07/24 02:43:41;;;;;;;;;;;;;;;16.72;100.00;100284.84;5003712;28;20055;-79
2023/07/24 02:46:06;;;;;;;;;;;;;;;16.74;100.00;100287.34;5007980;28;19923;-84
2023/07/24 02:48:31;;;;;;;;;;;;;;;16.70;100.00;100281.44;4999908;28;19921;-79
2023/07/24 02:50:56;;;;;;;;;;;;;;;16.70;100.00;100281.44;5017995;28;19921;-84
2023/07/24 02:53:21;;;;;;;;;;;;;;;16.70;100.00;100278.75;5033178;28;20965;-79
2023/07/24 02:55:47;;;;;;;;;;;;;;;16.66;100.00;100280.09;5018654;28;19928;-79
2023/07/24 02:58:12;;;;;;;;;;;;;;;16.67;100.00;100286.38;5037224;28;20134;-81
2023/07/24 03:00:38;;;;;;;;;;;;;;;16.72;100.00;100283.97;5020744;28;19921;-82
2023/07/24 03:03:03;;;;;;;;;;;;;;;16.71;100.00;100276.84;5018033;28;20021;-83
2023/07/24 03:05:28;;;;;;;;;;;;;;;16.71;100.00;100279.56;4993343;28;20379;-84
2023/07/24 03:07:53;;;;;;;;;;;;;;;16.71;100.00;100272.28;5004697;28;20111;-81
2023/07/24 03:10:18;;;;;;;;;;;;;;;16.69;100.00;100270.75;5019784;28;19928;-82
2023/07/24 03:12:44;;;;;;;;;;;;;;;16.68;100.00;100269.09;5024680;28;19925;-84
2023/07/24 03:15:09;;;;;;;;;;;;;;;16.66;100.00;100274.69;5032709;28;19925;-81
2023/07/24 03:17:34;;;;;;;;;;;;;;;16.69;100.00;100266.19;5022481;28;20011;-80
2023/07/24 03:20:07;;;;;;;;;;;;;;;16.73;100.00;100275.69;5022023;28;19921;-76
2023/07/24 03:22:32;;;;;;;;;;;;;;;16.59;100.00;100270.97;4998160;28;19929;-75
2023/07/24 03:24:57;;;;;;;;;;;;;;;16.60;100.00;100264.53;5012517;28;19924;-79
2023/07/24 03:27:22;;;;;;;;;;;;;;;16.40;100.00;100254.06;5028184;28;19925;-77
2023/07/24 03:29:48;;;;;;;;;;;;;;;16.42;100.00;100249.34;5032817;28;19921;-77
2023/07/24 03:32:14;;;;;;;;;;;;;;;16.37;100.00;100240.03;5037025;28;19917;-77
2023/07/24 03:34:39;;;;;;;;;;;;;;;16.46;100.00;100241.69;5005915;28;19975;-77
2023/07/24 03:37:04;;;;;;;;;;;;;;;16.43;100.00;100240.19;5019226;28;20334;-77
2023/07/24 03:39:29;;;;;;;;;;;;;;;16.41;100.00;100231.38;5035256;28;20358;-79
2023/07/24 03:41:54;;;;;;;;;;;;;;;16.30;100.00;100246.13;5033625;28;20289;-77
2023/07/24 03:44:20;;;;;;;;;;;;;;;16.21;100.00;100251.75;5028754;28;20356;-77
2023/07/24 03:46:45;;;;;;;;;;;;;;;16.07;100.00;100247.84;4997241;28;20402;-77
2023/07/24 03:49:10;;;;;;;;;;;;;;;15.88;100.00;100248.03;5032831;28;20047;-75
2023/07/24 03:51:35;;;;;;;;;;;;;;;15.49;100.00;100235.13;5032966;28;19924;-74
2023/07/24 03:54:01;;;;;;;;;;;;;;;15.69;100.00;100254.56;5035805;28;19936;-77
2023/07/24 03:56:26;;;;;;;;;;;;;;;15.70;100.00;100258.97;5018543;28;19921;-75
2023/07/24 03:58:52;;;;;;;;;;;;;;;15.58;100.00;100258.44;5034769;28;19956;-73
2023/07/24 04:01:17;;;;;;;;;;;;;;;15.62;100.00;100268.94;5016242;28;19920;-73
2023/07/24 04:03:42;;;;;;;;;;;;;;;15.64;100.00;100273.16;4994784;28;19956;-76
2023/07/24 04:06:07;;;;;;;;;;;;;;;15.53;100.00;100266.22;5020374;28;20007;-74
2023/07/24 04:08:32;;;;;;;;;;;;;;;15.55;100.00;100258.78;5033508;28;20438;-77
2023/07/24 04:10:58;;;;;;;;;;;;;;;15.54;100.00;100265.19;5014682;28;19963;-76
2023/07/24 04:13:23;;;;;;;;;;;;;;;15.43;100.00;100282.59;5027906;28;19990;-75
2023/07/24 04:15:48;;;;;;;;;;;;;;;15.49;100.00;100281.09;4997810;28;20377;-76
2023/07/24 04:18:13;;;;;;;;;;;;;;;15.47;100.00;100268.75;5024349;28;19983;-74
2023/07/24 04:20:38;;;;;;;;;;;;;;;15.42;100.00;100266.53;5031158;28;20055;-75
2023/07/24 04:23:04;;;;;;;;;;;;;;;15.37;100.00;100268.88;5006976;28;19943;-73
2023/07/24 04:25:29;;;;;;;;;;;;;;;15.38;100.00;100273.28;5018173;28;20182;-74
2023/07/24 04:27:54;;;;;;;;;;;;;;;15.35;100.00;100273.63;5020420;28;19922;-74
2023/07/24 04:30:19;;;;;;;;;;;;;;;15.35;100.00;100268.22;5014941;28;19964;-74
2023/07/24 04:32:46;;;;;;;;;;;;;;;15.31;100.00;100273.09;5035018;28;20016;-74
2023/07/24 04:35:11;;;;;;;;;;;;;;;15.32;100.00;100273.94;5040359;28;20394;-74
2023/07/24 04:37:36;;;;;;;;;;;;;;;15.35;100.00;100273.63;5012221;28;21542;-74
2023/07/24 04:40:01;;;;;;;;;;;;;;;15.39;100.00;100275.81;4996670;28;20016;-74
2023/07/24 04:42:26;;;;;;;;;;;;;;;15.40;100.00;100282.91;4996264;28;19999;-74
2023/07/24 04:44:52;;;;;;;;;;;;;;;15.44;100.00;100278.03;5031569;28;19956;-74
2023/07/24 04:47:17;;;;;;;;;;;;;;;15.47;100.00;100284.97;5032164;28;19983;-74
2023/07/24 04:49:42;;;;;;;;;;;;;;;15.49;100.00;100280.25;4995396;28;19968;-74
2023/07/24 04:52:07;;;;;;;;;;;;;;;15.53;100.00;100281.59;5034901;28;19952;-74
2023/07/24 04:54:32;;;;;;;;;;;;;;;15.51;100.00;100286.34;5007414;28;20067;-74
2023/07/24 04:56:58;;;;;;;;;;;;;;;15.56;100.00;100270.47;5032618;28;20406;-76
2023/07/24 04:59:23;;;;;;;;;;;;;;;15.57;100.00;100274.88;5020566;28;20363;-74
2023/07/24 05:01:49;;;;;;;;;;;;;;;15.53;100.00;100281.59;4998169;28;19921;-74
2023/07/24 05:04:14;;;;;;;;;;;;;;;15.49;100.00;100281.09;5005276;28;19973;-74
2023/07/24 05:06:39;;;;;;;;;;;;;;;15.54;100.00;100286.00;5002891;28;20462;-74
2023/07/24 05:09:04;;;;;;;;;;;;;;;15.57;100.00;100267.56;5001223;28;20462;-74
2023/07/24 05:11:29;;;;;;;;;;;;;;;15.56;100.00;100265.88;5016364;28;20232;-74
2023/07/24 05:13:55;;;;;;;;;;;;;;;15.56;100.00;100263.19;4988475;28;19925;-74
2023/07/24 05:16:20;;;;;;;;;;;;;;;15.58;100.00;100269.28;5013527;28;20038;-73
2023/07/24 05:18:45;;;;;;;;;;;;;;;15.72;100.00;100277.75;5014223;28;20322;-74
2023/07/24 05:21:10;;;;;;;;;;;;;;;15.75;100.00;100275.56;4997805;28;20346;-73
2023/07/24 05:23:35;;;;;;;;;;;;;;;15.79;100.00;100272.53;5003492;28;20320;-73
2023/07/24 05:26:01;;;;;;;;;;;;;;;15.83;100.00;100282.00;5014850;28;20464;-73
2023/07/24 05:28:27;;;;;;;;;;;;;;;15.85;100.00;100283.50;5018736;28;20291;-74
2023/07/24 05:30:52;;;;;;;;;;;;;;;15.84;100.00;100298.06;5019813;28;20374;-73
2023/07/24 05:33:17;;;;;;;;;;;;;;;15.84;100.00;100295.34;5003073;28;19917;-74
2023/07/24 05:35:43;;;;;;;;;;;;;;;15.81;100.00;100295.69;4997121;28;19979;-75
2023/07/24 05:38:08;;;;;;;;;;;;;;;15.85;100.00;100307.88;5016212;28;20019;-74
2023/07/24 05:40:33;;;;;;;;;;;;;;;15.97;100.00;100302.19;4997560;28;19917;-74
2023/07/24 05:42:58;;;;;;;;;;;;;;;16.02;100.00;100300.66;5021212;28;19921;-74
2023/07/24 05:45:24;;;;;;;;;;;;;;;16.04;100.00;100295.91;5018687;28;19917;-75
2023/07/24 05:47:49;;;;;;;;;;;;;;;16.08;100.00;100301.81;4988650;28;19921;-74
2023/07/24 05:50:14;;;;;;;;;;;;;;;16.09;100.00;100308.09;5001110;28;20422;-75
2023/07/24 05:52:40;;;;;;;;;;;;;;;16.03;100.00;100306.91;5015793;28;20426;-74
2023/07/24 05:55:05;;;;;;;;;;;;;;;16.07;100.00;100316.38;4996977;28;19925;-74
2023/07/24 05:57:31;;;;;;;;;;;;;;;16.01;100.00;100315.19;5004695;28;19925;-74
2023/07/24 05:59:56;;;;;;;;;;;;;;;16.11;100.00;100312.31;5034881;28;19952;-74
2023/07/24 06:02:21;;;;;;;;;;;;;;;16.21;100.00;100312.16;5014257;28;19986;-74
2023/07/24 06:04:46;;;;;;;;;;;;;;;16.23;100.00;100312.84;5015024;28;19939;-75
2023/07/24 06:07:12;;;;;;;;;;;;;;;16.07;100.00;100321.78;5012098;28;19927;-75
2023/07/24 06:09:37;;;;;;;;;;;;;;;16.03;100.00;100320.44;5012892;28;19976;-74
2023/07/24 06:12:02;;;;;;;;;;;;;;;16.12;100.00;100324.03;5034858;28;20028;-76
2023/07/24 06:14:27;;;;;;;;;;;;;;;16.18;100.00;100326.91;5019524;28;19931;-75
2023/07/24 06:16:52;;;;;;;;;;;;;;;16.01;100.00;100330.63;5014514;28;19943;-80
2023/07/24 06:19:18;;;;;;;;;;;;;;;16.10;100.00;100329.59;5003480;28;19921;-77
2023/07/24 06:21:43;;;;;;;;;;;;;;;16.16;100.00;100344.31;5011618;28;19921;-77
2023/07/24 06:24:11;;;;;;;;;;;;;;;16.24;100.00;100341.63;4983992;28;19921;-76
2023/07/24 06:26:37;;;;;;;;;;;;;;;16.36;100.00;100344.81;5013343;28;19924;-76
2023/07/24 06:29:02;;;;;;;;;;;;;;;16.26;100.00;100345.00;5011636;28;19921;-76
2023/07/24 06:31:27;;;;;;;;;;;;;;;16.40;100.00;100348.06;5015190;28;20901;-76
2023/07/24 06:33:52;;;;;;;;;;;;;;;16.36;100.00;100342.13;5014408;28;20020;-83
2023/07/24 06:36:18;;;;;;;;;;;;;;;16.40;100.00;100348.91;5027966;28;19931;-75
2023/07/24 06:38:43;;;;;;;;;;;;;;;16.32;100.00;100355.16;5032797;28;20164;-77
2023/07/24 06:41:09;;;;;;;;;;;;;;;16.44;100.00;100352.97;4998238;28;19928;-75
2023/07/24 06:43:34;;;;;;;;;;;;;;;16.47;100.00;100357.19;5014934;28;20391;-81
2023/07/24 06:45:59;;;;;;;;;;;;;;;16.58;100.00;100359.56;5014038;28;19916;-77
2023/07/24 06:48:24;;;;;;;;;;;;;;;16.62;100.00;100352.78;5013519;28;19992;-76
2023/07/24 06:50:50;;;;;;;;;;;;;;;16.83;100.00;100362.22;5029660;28;19921;-76
2023/07/24 06:53:15;;;;;;;;;;;;;;;17.04;100.00;100361.72;5008625;28;19923;-77
2023/07/24 06:55:41;;;;;;;;;;;;;;;16.92;100.00;100365.75;5014717;28;20010;-76
2023/07/24 06:58:06;;;;;;;;;;;;;;;16.94;100.00;100371.88;5034769;28;20240;-81
2023/07/24 07:00:31;;;;;;;;;;;;;;;17.16;100.00;100373.03;5034334;28;19917;-79
2023/07/24 07:02:56;;;;;;;;;;;;;;;17.16;100.00;100373.03;5025922;28;20359;-76
2023/07/24 07:05:22;;;;;;;;;;;;;;;16.98;100.00;100372.38;5014430;28;20422;-75
2023/07/24 07:07:47;;;;;;;;;;;;;;;16.74;100.00;100371.38;5030257;28;20759;-83
2023/07/24 07:10:12;;;;;;;;;;;;;;;16.91;100.00;100378.50;5013459;28;19921;-76
2023/07/24 07:12:37;;;;;;;;;;;;;;;17.05;100.00;100371.53;5000543;28;20378;-77
2023/07/24 07:15:04;;;;;;;;;;;;;;;17.13;100.00;100378.81;5030807;28;20140;-77
2023/07/24 07:17:30;;;;;;;;;;;;;;;17.24;100.00;100377.59;5015975;28;19921;-76
2023/07/24 07:19:56;;;;;;;;;;;;;;;17.27;100.00;100374.53;5013282;28;19967;-79
2023/07/24 07:22:21;;;;;;;;;;;;;;;17.47;100.00;100382.25;5035863;28;19942;-76
2023/07/24 07:24:47;;;;;;;;;;;;;;;17.44;100.00;100369.88;4985671;28;19925;-77
2023/07/24 07:27:12;;;;;;;;;;;;;;;17.47;100.00;100372.25;5034647;28;19928;-76
2023/07/24 07:29:37;;;;;;;;;;;;;;;17.52;100.00;100374.41;5013350;28;20073;-74
2023/07/24 07:32:02;;;;;;;;;;;;;;;17.49;100.00;100370.16;5031201;28;19913;-77
2023/07/24 07:34:27;;;;;;;;;;;;;;;17.38;100.00;100362.44;5029626;28;19937;-77
2023/07/24 07:36:53;;;;;;;;;;;;;;;17.28;100.00;100367.22;4997607;28;20355;-76
2023/07/24 07:39:18;;;;;;;;;;;;;;;17.41;100.00;100369.38;5015932;28;20589;-75
2023/07/24 07:41:43;;;;;;;;;;;;;;;17.32;100.00;100363.13;5018178;28;20478;-75
2023/07/24 07:44:09;;;;;;;;;;;;;;;17.44;100.00;100366.31;5009844;28;19921;-75
2023/07/24 07:46:34;;;;;;;;;;;;;;;17.48;100.00;100370.38;5019415;28;19924;-74
2023/07/24 07:48:59;;;;;;;;;;;;;;;17.09;100.00;100362.00;5013231;28;19975;-80
2023/07/24 07:51:25;;;;;;;;;;;;;;;17.16;100.00;100359.47;5004335;28;20043;-79
2023/07/24 07:53:50;;;;;;;;;;;;;;;16.93;100.00;100351.19;5013134;28;19947;-77
2023/07/24 07:56:16;;;;;;;;;;;;;;;16.84;100.00;100361.22;5003388;28;20367;-78
2023/07/24 07:58:41;;;;;;;;;;;;;;;16.72;100.00;100359.88;5030701;28;20370;-75
2023/07/24 08:01:06;;;;;;;;;;;;;;;16.71;100.00;100372.59;5017464;28;20271;-74
2023/07/24 08:03:31;;;;;;;;;;;;;;;16.78;100.00;100370.88;4997017;28;20407;-74
2023/07/24 08:05:57;;;;;;;;;;;;;;;16.74;100.00;100369.53;5018544;28;19925;-77
2023/07/24 08:08:22;;;;;;;;;;;;;;;16.72;100.00;100368.00;4981310;28;19929;-75
2023/07/24 08:10:48;;;;;;;;;;;;;;;16.88;100.00;100369.84;5014710;28;19943;-76
2023/07/24 08:13:13;;;;;;;;;;;;;;;16.86;100.00;100372.72;4996226;28;19921;-75
2023/07/24 08:15:38;;;;;;;;;;;;;;;17.01;100.00;100372.91;5011803;28;20306;-77
2023/07/24 08:18:04;;;;;;;;;;;;;;;17.06;100.00;100366.94;5014656;28;20363;-76
2023/07/24 08:20:29;;;;;;;;;;;;;;;17.24;100.00;100369.44;5018522;28;19921;-75
2023/07/24 08:22:54;;;;;;;;;;;;;;;17.28;100.00;100373.50;5013952;28;19967;-75
2023/07/24 08:25:20;;;;;;;;;;;;;;;17.41;100.00;100372.09;5006848;28;19948;-78
2023/07/24 08:27:45;;;;;;;;;;;;;;;17.26;100.00;100367.41;5013826;28;20016;-76
2023/07/24 08:30:10;;;;;;;;;;;;;;;17.45;100.00;100370.72;5002611;28;20086;-73
2023/07/24 08:32:36;;;;;;;;;;;;;;;17.57;100.00;100363.88;5017663;28;19925;-76
2023/07/24 08:35:01;;;;;;;;;;;;;;;17.69;100.00;100375.19;5008133;28;20019;-76
2023/07/24 08:37:26;;;;;;;;;;;;;;;17.81;100.00;100373.75;5016529;28;19940;-75
2023/07/24 08:39:51;;;;;;;;;;;;;;;17.61;100.00;100369.78;5003269;28;20061;-78
2023/07/24 08:42:23;;;;;;;;;;;;;;;17.71;100.00;100356.00;5002620;28;19928;-77
2023/07/24 08:44:48;;;;;;;;;;;;;;;17.80;100.00;100360.38;5027903;28;20044;-77
2023/07/24 08:47:13;;;;;;;;;;;;;;;17.91;100.00;100354.50;5038016;28;19997;-77
2023/07/24 08:49:40;;;;;;;;;;;;;;;18.32;100.00;100349.84;5004029;28;19925;-77
2023/07/24 08:52:05;;;;;;;;;;;;;;;18.51;100.00;100346.63;5003364;28;20024;-78
2023/07/24 08:54:31;;;;;;;;;;;;;;;18.69;100.00;100348.13;5021367;28;20039;-80
2023/07/24 08:56:56;;;;;;;;;;;;;;;18.53;100.00;100341.00;4999922;28;20286;-75
2023/07/24 08:59:21;;;;;;;;;;;;;;;18.64;100.00;100326.94;5039049;28;19927;-75
2023/07/24 09:01:46;;;;;;;;;;;;;;;18.87;100.00;100320.59;5016750;28;19971;-74
2023/07/24 09:04:11;;;;;;;;;;;;;;;18.73;100.00;100319.53;5002456;28;20015;-76
2023/07/24 09:06:37;;;;;;;;;;;;;;;18.79;100.00;100326.97;5006765;28;19921;-74
2023/07/24 09:09:02;;;;;;;;;;;;;;;18.80;100.00;100325.94;5017033;28;19920;-77
2023/07/24 09:11:28;;;;;;;;;;;;;;;18.61;100.00;100319.16;5034009;28;20714;-76
2023/07/24 09:13:53;;;;;;;;;;;;;;;18.62;100.00;100322.75;5017524;28;19935;-76
2023/07/24 09:16:23;;;;;;;;;;;;;;;18.76;100.00;100321.91;5018324;28;19925;-76
2023/07/24 09:18:48;;;;;;;;;;;;;;;18.66;100.00;100324.06;4996923;28;20043;-76
2023/07/24 09:21:13;;;;;;;;;;;;;;;18.66;100.00;100333.06;5003173;28;19972;-76
2023/07/24 09:23:40;;;;;;;;;;;;;;;18.49;100.00;100324.19;5015604;28;20453;-77
2023/07/24 09:26:09;;;;;;;;;;;;;;;18.31;100.00;100319.09;5013709;28;19928;-76
2023/07/24 09:28:34;;;;;;;;;;;;;;;18.23;100.00;100319.19;4994710;28;19982;-77
2023/07/24 09:31:03;;;;;;;;;;;;;;;18.25;100.00;100315.25;5029331;28;20498;-77
2023/07/24 09:33:38;;;;;;;;;;;;;;;18.05;100.00;100305.91;5003916;28;20002;-83
2023/07/24 09:36:04;;;;;;;;;;;;;;;18.27;100.00;100304.22;4987873;28;20387;-76
2023/07/24 09:38:29;;;;;;;;;;;;;;;18.46;100.00;100302.81;5020933;28;19921;-74
2023/07/24 09:40:55;;;;;;;;;;;;;;;18.70;100.00;100309.91;5037270;28;19917;-74
2023/07/24 09:43:25;;;;;;;;;;;;;;;19.10;100.00;100297.91;4999437;28;19920;-75
2023/07/24 09:45:51;;;;;;;;;;;;;;;19.08;100.00;100284.50;5031111;28;20160;-74
2023/07/24 09:48:17;;;;;;;;;;;;;;;19.51;100.00;100286.50;5032733;28;19929;-75
2023/07/24 09:50:42;;;;;;;;;;;;;;;19.48;100.00;100274.09;5020222;28;20446;-77
2023/07/24 09:53:28;;;;;;;;;;;;;;;19.45;100.00;100274.50;5018042;28;20348;-80
2023/07/24 09:55:53;;;;;;;;;;;;;;;19.29;100.00;100269.28;5003413;28;19929;-76
2023/07/24 09:58:18;;;;;;;;;;;;;;;19.30;100.00;100270.97;5018360;28;20255;-74
2023/07/24 10:00:44;;;;;;;;;;;;;;;19.27;100.00;100255.88;5019379;28;19944;-75
2023/07/24 10:03:09;;;;;;;;;;;;;;;19.17;100.00;100252.59;5015710;28;20371;-73
2023/07/24 10:05:34;;;;;;;;;;;;;;;18.95;100.00;100235.31;5012365;28;20228;-79
2023/07/24 10:07:59;;;;;;;;;;;;;;;18.98;100.00;100245.88;5036066;28;19968;-73
2023/07/24 10:10:26;;;;;;;;;;;;;;;18.96;100.00;100237.03;5016082;28;19972;-73
2023/07/24 10:12:52;;;;;;;;;;;;;;;18.95;100.00;100246.22;5034878;28;19921;-75
2023/07/24 10:15:17;;;;;;;;;;;;;;;18.95;100.00;100238.03;5016626;28;19964;-74
2023/07/24 10:17:42;;;;;;;;;;;;;;;18.95;100.00;100235.31;5020511;28;20012;-74
2023/07/24 10:20:08;;;;;;;;;;;;;;;18.86;100.00;100237.31;5011815;28;19927;-74
2023/07/24 10:22:34;;;;;;;;;;;;;;;18.20;100.00;100241.59;5006176;28;19917;-73
2023/07/24 10:24:59;;;;;;;;;;;;;;;18.27;100.00;100241.72;5033155;28;19997;-78
2023/07/24 10:27:24;;;;;;;;;;;;;;;18.44;100.00;100253.25;5032468;28;20047;-73
2023/07/24 10:30:03;;;;;;;;;;;;;;;18.46;100.00;100255.78;5015662;28;19921;-74
2023/07/24 10:32:28;;;;;;;;;;;;;;;18.37;100.00;100257.75;4999429;28;19931;-74
2023/07/24 10:34:59;;;;;;;;;;;;;;;18.31;100.00;100259.31;5013327;28;19999;-74
2023/07/24 10:37:34;;;;;;;;;;;;;;;18.05;100.00;100270.59;5032207;28;20372;-77
2023/07/24 10:40:00;;;;;;;;;;;;;;;17.73;100.00;100291.50;5011775;28;19921;-78
2023/07/24 10:42:25;;;;;;;;;;;;;;;17.76;100.00;100283.00;5022026;28;19928;-74
2023/07/24 10:45:01;;;;;;;;;;;;;;;17.43;100.00;100273.22;4984400;28;19921;-75
2023/07/24 10:47:26;;;;;;;;;;;;;;;17.73;100.00;100277.94;5033846;28;19963;-76
2023/07/24 10:49:51;;;;;;;;;;;;;;;17.65;100.00;100279.66;5014263;28;19920;-74
2023/07/24 10:52:16;;;;;;;;;;;;;;;17.64;100.00;100274.44;4999763;28;19921;-74
2023/07/24 10:54:41;;;;;;;;;;;;;;;17.72;100.00;100274.38;5000640;28;19961;-76
2023/07/24 10:57:07;;;;;;;;;;;;;;;17.57;100.00;100285.19;5018942;28;20085;-77
2023/07/24 10:59:38;;;;;;;;;;;;;;;17.90;100.00;100289.53;5013964;28;19917;-75
2023/07/24 11:02:04;;;;;;;;;;;;;;;18.12;100.00;100305.00;5016584;28;20064;-75
2023/07/24 11:04:29;;;;;;;;;;;;;;;18.14;100.00;100311.09;5017054;28;19921;-79
2023/07/24 11:06:57;;;;;;;;;;;;;;;18.12;100.00;100305.00;5034606;28;20361;-73
2023/07/24 11:09:22;;;;;;;;;;;;;;;18.44;100.00;100291.28;4999103;28;20003;-75
2023/07/24 11:11:47;;;;;;;;;;;;;;;18.89;100.00;100292.19;5000974;28;19921;-75
2023/07/24 11:14:13;;;;;;;;;;;;;;;19.25;100.00;100287.88;5000170;28;19931;-74
2023/07/24 11:16:47;;;;;;;;;;;;;;;19.37;100.00;100284.63;5014906;28;19921;-74
2023/07/24 11:19:12;;;;;;;;;;;;;;;19.58;100.00;100273.81;5012510;28;19921;-74
2023/07/24 11:21:37;;;;;;;;;;;;;;;19.52;100.00;100284.59;5007048;28;19931;-76
2023/07/24 11:24:06;;;;;;;;;;;;;;;19.33;100.00;100271.41;5011883;28;19920;-74
2023/07/24 11:26:31;;;;;;;;;;;;;;;19.49;100.00;100270.34;5034379;28;19925;-75
2023/07/24 11:28:56;;;;;;;;;;;;;;;19.53;100.00;100264.50;5017866;28;19927;-74
2023/07/24 11:31:21;;;;;;;;;;;;;;;19.71;100.00;100251.31;5018503;28;19967;-73
2023/07/24 11:33:48;;;;;;;;;;;;;;;19.73;100.00;100241.03;5018730;28;20057;-74
2023/07/24 11:36:13;;;;;;;;;;;;;;;19.72;100.00;100250.28;5032354;28;19930;-74
2023/07/24 11:38:39;;;;;;;;;;;;;;;19.75;100.00;100247.16;5040672;28;19928;-73
2023/07/24 11:41:04;;;;;;;;;;;;;;;20.00;100.00;100256.84;4999344;28;19963;-75
2023/07/24 11:43:29;;;;;;;;;;;;;;;19.68;100.00;100246.25;5020018;28;19924;-74
2023/07/24 11:45:55;;;;;;;;;;;;;;;20.14;100.00;100253.19;4998874;28;19987;-74
2023/07/24 11:48:21;;;;;;;;;;;;;;;20.39;100.00;100255.50;5031809;28;20019;-80
2023/07/24 11:50:47;;;;;;;;;;;;;;;20.27;100.00;100252.44;5014599;28;20019;-73
2023/07/24 11:53:22;;;;;;;;;;;;;;;20.12;100.00;100251.69;5019673;28;19966;-76
2023/07/24 11:55:47;;;;;;;;;;;;;;;20.18;100.00;100262.66;5022553;28;20246;-74
2023/07/24 11:58:14;;;;;;;;;;;;;;;20.66;100.00;100256.50;5020290;28;20462;-75
2023/07/24 12:00:39;;;;;;;;;;;;;;;20.71;100.00;100253.16;5016374;28;20985;-73
2023/07/24 12:03:04;;;;;;;;;;;;;;;20.70;100.00;100258.81;5004441;28;20000;-75
2023/07/24 12:05:30;;;;;;;;;;;;;;;20.64;100.00;100244.13;5004581;28;19921;-74
2023/07/24 12:07:55;;;;;;;;;;;;;;;20.47;100.00;100240.84;5032590;28;20699;-74
2023/07/24 12:10:27;;;;;;;;;;;;;;;20.57;100.00;100241.31;5006315;28;20550;-79
2023/07/24 12:12:52;;;;;;;;;;;;;;;20.94;100.00;100250.16;5040708;28;19921;-84
2023/07/24 12:15:17;;;;;;;;;;;;;;;21.60;100.00;100242.41;5004243;28;19933;-75
2023/07/24 12:17:43;;;;;;;;;;;;;;;22.51;100.00;100223.75;5011884;28;19921;-75
2023/07/24 12:20:11;;;;;;;;;;;;;;;23.14;100.00;100221.44;5038036;28;20016;-78